sensor_id;sensor_type;location;lat;lon;timestamp;pressure;altitude;pressure_sealevel;temperature;humidity
21361;BME280;10839;43.206;23.550;2024-02-26T00:01:27;96648.38;;;11.59;94.49
21361;BME280;10839;43.206;23.550;2024-02-26T00:03:54;96646.31;;;11.61;94.71
21361;BME280;10839;43.206;23.550;2024-02-26T00:06:24;96637.19;;;11.62;94.58
21361;BME280;10839;43.206;23.550;2024-02-26T00:08:50;96628.97;;;11.44;95.31
21361;BME280;10839;43.206;23.550;2024-02-26T00:11:15;96641.66;;;11.30;96.80
21361;BME280;10839;43.206;23.550;2024-02-26T00:13:41;96638.06;;;11.43;96.17
21361;BME280;10839;43.206;23.550;2024-02-26T00:16:06;96638.06;;;11.43;96.29
21361;BME280;10839;43.206;23.550;2024-02-26T00:18:33;96631.41;;;11.52;95.85
21361;BME280;10839;43.206;23.550;2024-02-26T00:20:58;96624.75;;;11.54;94.98
21361;BME280;10839;43.206;23.550;2024-02-26T00:23:24;96643.25;;;11.51;95.07
21361;BME280;10839;43.206;23.550;2024-02-26T00:25:50;96643.25;;;11.51;94.95
21361;BME280;10839;43.206;23.550;2024-02-26T00:28:15;96633.44;;;11.70;93.62
21361;BME280;10839;43.206;23.550;2024-02-26T00:30:41;96622.06;;;11.61;94.46
21361;BME280;10839;43.206;23.550;2024-02-26T00:33:06;96634.06;;;11.58;93.76
21361;BME280;10839;43.206;23.550;2024-02-26T00:35:32;96625.94;;;11.78;92.63
21361;BME280;10839;43.206;23.550;2024-02-26T00:37:57;96628.00;;;11.76;92.19
21361;BME280;10839;43.206;23.550;2024-02-26T00:40:24;96628.91;;;11.57;93.22
21361;BME280;10839;43.206;23.550;2024-02-26T00:42:49;96615.06;;;11.91;91.23
21361;BME280;10839;43.206;23.550;2024-02-26T00:45:15;96629.34;;;11.54;94.03
21361;BME280;10839;43.206;23.550;2024-02-26T00:47:42;96628.59;;;11.34;96.40
21361;BME280;10839;43.206;23.550;2024-02-26T00:50:08;96634.81;;;11.28;96.59
21361;BME280;10839;43.206;23.550;2024-02-26T00:52:34;96619.91;;;11.25;96.71
21361;BME280;10839;43.206;23.550;2024-02-26T00:55:00;96627.34;;;11.30;96.72
21361;BME280;10839;43.206;23.550;2024-02-26T00:57:25;96606.44;;;11.25;96.64
21361;BME280;10839;43.206;23.550;2024-02-26T00:59:51;96616.13;;;11.46;95.84
21361;BME280;10839;43.206;23.550;2024-02-26T01:02:16;96607.91;;;11.15;98.15
21361;BME280;10839;43.206;23.550;2024-02-26T01:04:42;96606.28;;;11.14;97.84
21361;BME280;10839;43.206;23.550;2024-02-26T01:07:08;96610.38;;;11.23;97.17
21361;BME280;10839;43.206;23.550;2024-02-26T01:09:34;96607.66;;;11.36;95.32
21361;BME280;10839;43.206;23.550;2024-02-26T01:12:00;96598.72;;;11.42;93.89
21361;BME280;10839;43.206;23.550;2024-02-26T01:14:25;96596.97;;;11.60;93.52
21361;BME280;10839;43.206;23.550;2024-02-26T01:16:51;96603.19;;;11.68;92.66
21361;BME280;10839;43.206;23.550;2024-02-26T01:19:16;96594.91;;;11.69;92.34
21361;BME280;10839;43.206;23.550;2024-02-26T01:21:42;96589.94;;;11.66;91.16
21361;BME280;10839;43.206;23.550;2024-02-26T01:24:07;96586.94;;;11.81;90.26
21361;BME280;10839;43.206;23.550;2024-02-26T01:26:33;96573.34;;;11.69;90.27
21361;BME280;10839;43.206;23.550;2024-02-26T01:28:58;96580.63;;;11.93;87.24
21361;BME280;10839;43.206;23.550;2024-02-26T01:31:24;96573.25;;;12.13;84.15
21361;BME280;10839;43.206;23.550;2024-02-26T01:33:49;96571.22;;;12.33;81.68
21361;BME280;10839;43.206;23.550;2024-02-26T01:36:15;96573.81;;;12.46;80.83
21361;BME280;10839;43.206;23.550;2024-02-26T01:38:40;96575.06;;;12.68;77.63
21361;BME280;10839;43.206;23.550;2024-02-26T01:41:06;96574.47;;;12.84;76.33
21361;BME280;10839;43.206;23.550;2024-02-26T01:43:31;96573.09;;;13.00;74.71
21361;BME280;10839;43.206;23.550;2024-02-26T01:45:58;96568.78;;;13.17;74.20
21361;BME280;10839;43.206;23.550;2024-02-26T01:48:24;96568.84;;;13.11;75.17
21361;BME280;10839;43.206;23.550;2024-02-26T01:50:50;96556.56;;;12.72;78.28
21361;BME280;10839;43.206;23.550;2024-02-26T01:53:16;96556.13;;;12.50;80.04
21361;BME280;10839;43.206;23.550;2024-02-26T01:55:42;96562.91;;;12.35;83.23
21361;BME280;10839;43.206;23.550;2024-02-26T01:58:08;96555.53;;;11.99;85.61
21361;BME280;10839;43.206;23.550;2024-02-26T02:00:34;96559.16;;;11.80;88.27
21361;BME280;10839;43.206;23.550;2024-02-26T02:03:01;96560.34;;;11.91;86.06
21361;BME280;10839;43.206;23.550;2024-02-26T02:05:30;96565.06;;;11.64;88.62
21361;BME280;10839;43.206;23.550;2024-02-26T02:07:56;96561.00;;;11.42;90.95
21361;BME280;10839;43.206;23.550;2024-02-26T02:10:22;96567.06;;;11.31;91.61
21361;BME280;10839;43.206;23.550;2024-02-26T02:12:51;96560.22;;;11.28;91.60
21361;BME280;10839;43.206;23.550;2024-02-26T02:15:17;96559.88;;;11.12;93.92
21361;BME280;10839;43.206;23.550;2024-02-26T02:17:42;96557.91;;;10.81;96.21
21361;BME280;10839;43.206;23.550;2024-02-26T02:20:18;96563.13;;;11.27;91.05
21361;BME280;10839;43.206;23.550;2024-02-26T02:22:46;96565.34;;;11.43;91.15
21361;BME280;10839;43.206;23.550;2024-02-26T02:25:12;96567.75;;;11.07;94.20
21361;BME280;10839;43.206;23.550;2024-02-26T02:27:39;96567.75;;;11.07;94.37
21361;BME280;10839;43.206;23.550;2024-02-26T02:30:05;96557.41;;;11.10;93.73
21361;BME280;10839;43.206;23.550;2024-02-26T02:32:32;96559.69;;;11.07;94.60
21361;BME280;10839;43.206;23.550;2024-02-26T02:34:58;96566.50;;;11.16;92.61
21361;BME280;10839;43.206;23.550;2024-02-26T02:37:24;96559.50;;;11.02;94.54
21361;BME280;10839;43.206;23.550;2024-02-26T02:39:50;96556.50;;;11.23;92.68
21361;BME280;10839;43.206;23.550;2024-02-26T02:42:15;96561.38;;;11.52;89.13
21361;BME280;10839;43.206;23.550;2024-02-26T02:44:41;96549.41;;;11.35;90.42
21361;BME280;10839;43.206;23.550;2024-02-26T02:47:06;96557.19;;;11.12;92.79
21361;BME280;10839;43.206;23.550;2024-02-26T02:49:32;96559.41;;;11.28;91.50
21361;BME280;10839;43.206;23.550;2024-02-26T02:51:57;96557.31;;;11.30;92.31
21361;BME280;10839;43.206;23.550;2024-02-26T02:54:23;96555.56;;;11.04;94.38
21361;BME280;10839;43.206;23.550;2024-02-26T02:56:49;96573.63;;;10.91;96.43
21361;BME280;10839;43.206;23.550;2024-02-26T02:59:14;96567.06;;;10.61;99.04
21361;BME280;10839;43.206;23.550;2024-02-26T03:01:40;96571.19;;;10.50;100.00
21361;BME280;10839;43.206;23.550;2024-02-26T03:04:05;96574.50;;;10.59;99.38
21361;BME280;10839;43.206;23.550;2024-02-26T03:06:31;96586.53;;;10.56;99.29
21361;BME280;10839;43.206;23.550;2024-02-26T03:08:56;96584.22;;;10.47;99.68
21361;BME280;10839;43.206;23.550;2024-02-26T03:11:22;96586.13;;;10.40;100.00
21361;BME280;10839;43.206;23.550;2024-02-26T03:13:47;96586.91;;;10.60;98.69
21361;BME280;10839;43.206;23.550;2024-02-26T03:16:13;96581.94;;;10.83;97.37
21361;BME280;10839;43.206;23.550;2024-02-26T03:18:39;96576.53;;;10.83;96.89
21361;BME280;10839;43.206;23.550;2024-02-26T03:21:05;96586.41;;;11.08;95.42
21361;BME280;10839;43.206;23.550;2024-02-26T03:23:31;96579.34;;;11.14;94.44
21361;BME280;10839;43.206;23.550;2024-02-26T03:25:58;96587.91;;;10.98;94.99
21361;BME280;10839;43.206;23.550;2024-02-26T03:28:23;96589.34;;;10.94;95.28
21361;BME280;10839;43.206;23.550;2024-02-26T03:30:49;96595.59;;;10.88;93.87
21361;BME280;10839;43.206;23.550;2024-02-26T03:33:15;96588.13;;;10.83;94.58
21361;BME280;10839;43.206;23.550;2024-02-26T03:35:40;96590.22;;;10.81;94.00
21361;BME280;10839;43.206;23.550;2024-02-26T03:38:06;96586.41;;;11.02;92.79
21361;BME280;10839;43.206;23.550;2024-02-26T03:40:31;96593.44;;;11.16;91.04
21361;BME280;10839;43.206;23.550;2024-02-26T03:42:59;96594.44;;;11.21;91.60
21361;BME280;10839;43.206;23.550;2024-02-26T03:45:25;96599.63;;;11.16;92.41
21361;BME280;10839;43.206;23.550;2024-02-26T03:47:51;96601.47;;;11.29;91.83
21361;BME280;10839;43.206;23.550;2024-02-26T03:50:16;96597.22;;;10.89;95.62
21361;BME280;10839;43.206;23.550;2024-02-26T03:52:42;96586.03;;;10.92;96.28
21361;BME280;10839;43.206;23.550;2024-02-26T03:55:08;96591.75;;;11.15;94.19
21361;BME280;10839;43.206;23.550;2024-02-26T03:57:35;96595.44;;;11.33;93.93
21361;BME280;10839;43.206;23.550;2024-02-26T04:00:01;96606.09;;;11.09;94.87
21361;BME280;10839;43.206;23.550;2024-02-26T04:02:26;96605.91;;;10.91;96.69
21361;BME280;10839;43.206;23.550;2024-02-26T04:04:52;96602.59;;;10.89;97.00
21361;BME280;10839;43.206;23.550;2024-02-26T04:07:17;96614.22;;;10.89;96.94
21361;BME280;10839;43.206;23.550;2024-02-26T04:09:44;96617.50;;;10.85;97.59
21361;BME280;10839;43.206;23.550;2024-02-26T04:12:09;96601.34;;;10.85;97.87
21361;BME280;10839;43.206;23.550;2024-02-26T04:14:35;96601.59;;;10.64;99.12
21361;BME280;10839;43.206;23.550;2024-02-26T04:17:01;96608.44;;;10.73;98.99
21361;BME280;10839;43.206;23.550;2024-02-26T04:19:27;96593.50;;;10.83;98.36
21361;BME280;10839;43.206;23.550;2024-02-26T04:21:52;96595.59;;;10.88;98.08
21361;BME280;10839;43.206;23.550;2024-02-26T04:24:18;96594.78;;;10.68;99.24
21361;BME280;10839;43.206;23.550;2024-02-26T04:26:43;96593.53;;;10.64;99.92
21361;BME280;10839;43.206;23.550;2024-02-26T04:29:09;96592.69;;;10.70;100.00
21361;BME280;10839;43.206;23.550;2024-02-26T04:31:34;96583.59;;;10.71;99.22
21361;BME280;10839;43.206;23.550;2024-02-26T04:34:00;96592.09;;;10.68;100.00
21361;BME280;10839;43.206;23.550;2024-02-26T04:36:25;96588.94;;;10.84;98.66
21361;BME280;10839;43.206;23.550;2024-02-26T04:38:53;96606.72;;;11.04;97.22
21361;BME280;10839;43.206;23.550;2024-02-26T04:41:22;96609.16;;;11.19;96.21
21361;BME280;10839;43.206;23.550;2024-02-26T04:43:47;96604.06;;;10.98;95.71
21361;BME280;10839;43.206;23.550;2024-02-26T04:46:13;96594.34;;;10.77;97.26
21361;BME280;10839;43.206;23.550;2024-02-26T04:48:38;96603.47;;;10.76;98.54
21361;BME280;10839;43.206;23.550;2024-02-26T04:51:08;96606.34;;;10.88;96.94
21361;BME280;10839;43.206;23.550;2024-02-26T04:53:34;96592.28;;;10.73;96.54
21361;BME280;10839;43.206;23.550;2024-02-26T04:55:59;96600.97;;;10.81;96.29
21361;BME280;10839;43.206;23.550;2024-02-26T04:58:25;96609.88;;;10.69;96.99
21361;BME280;10839;43.206;23.550;2024-02-26T05:00:50;96611.34;;;10.78;96.09
21361;BME280;10839;43.206;23.550;2024-02-26T05:03:16;96599.31;;;10.74;96.56
21361;BME280;10839;43.206;23.550;2024-02-26T05:05:43;96618.34;;;10.92;94.06
21361;BME280;10839;43.206;23.550;2024-02-26T05:08:10;96609.59;;;11.16;92.67
21361;BME280;10839;43.206;23.550;2024-02-26T05:10:37;96607.88;;;11.28;91.36
21361;BME280;10839;43.206;23.550;2024-02-26T05:13:08;96612.03;;;11.24;91.41
21361;BME280;10839;43.206;23.550;2024-02-26T05:15:33;96614.50;;;11.32;89.82
21361;BME280;10839;43.206;23.550;2024-02-26T05:17:59;96621.53;;;11.33;88.85
21361;BME280;10839;43.206;23.550;2024-02-26T05:20:25;96618.09;;;11.00;90.15
21361;BME280;10839;43.206;23.550;2024-02-26T05:22:50;96621.22;;;10.97;90.95
21361;BME280;10839;43.206;23.550;2024-02-26T05:25:17;96627.41;;;11.04;90.61
21361;BME280;10839;43.206;23.550;2024-02-26T05:27:43;96643.13;;;11.20;89.46
21361;BME280;10839;43.206;23.550;2024-02-26T05:30:10;96645.66;;;11.02;90.67
21361;BME280;10839;43.206;23.550;2024-02-26T05:32:36;96646.47;;;11.09;90.88
21361;BME280;10839;43.206;23.550;2024-02-26T05:35:01;96642.09;;;11.21;91.26
21361;BME280;10839;43.206;23.550;2024-02-26T05:37:29;96641.03;;;11.22;92.42
21361;BME280;10839;43.206;23.550;2024-02-26T05:39:55;96631.31;;;11.21;93.19
21361;BME280;10839;43.206;23.550;2024-02-26T05:42:20;96634.44;;;11.24;93.62
21361;BME280;10839;43.206;23.550;2024-02-26T05:44:46;96628.66;;;11.08;94.54
21361;BME280;10839;43.206;23.550;2024-02-26T05:47:12;96644.00;;;11.01;94.58
21361;BME280;10839;43.206;23.550;2024-02-26T05:49:37;96623.28;;;10.95;96.19
21361;BME280;10839;43.206;23.550;2024-02-26T05:52:04;96645.25;;;10.92;94.58
21361;BME280;10839;43.206;23.550;2024-02-26T05:54:29;96654.13;;;11.12;93.95
21361;BME280;10839;43.206;23.550;2024-02-26T05:56:55;96648.25;;;11.28;93.39
21361;BME280;10839;43.206;23.550;2024-02-26T05:59:20;96663.75;;;11.52;93.82
21361;BME280;10839;43.206;23.550;2024-02-26T06:01:46;96656.78;;;11.25;96.88
21361;BME280;10839;43.206;23.550;2024-02-26T06:04:11;96662.97;;;11.32;97.54
21361;BME280;10839;43.206;23.550;2024-02-26T06:06:37;96672.94;;;11.18;99.39
21361;BME280;10839;43.206;23.550;2024-02-26T06:09:03;96671.72;;;11.21;99.91
21361;BME280;10839;43.206;23.550;2024-02-26T06:11:30;96668.41;;;11.19;100.00
21361;BME280;10839;43.206;23.550;2024-02-26T06:13:56;96676.50;;;11.12;100.00
21361;BME280;10839;43.206;23.550;2024-02-26T06:16:21;96687.88;;;10.95;100.00
21361;BME280;10839;43.206;23.550;2024-02-26T06:18:47;96684.19;;;10.89;100.00
21361;BME280;10839;43.206;23.550;2024-02-26T06:21:12;96683.16;;;10.58;100.00
21361;BME280;10839;43.206;23.550;2024-02-26T06:23:39;96689.56;;;10.89;100.00
21361;BME280;10839;43.206;23.550;2024-02-26T06:26:05;96701.56;;;10.87;100.00
21361;BME280;10839;43.206;23.550;2024-02-26T06:28:31;96693.69;;;11.05;100.00
21361;BME280;10839;43.206;23.550;2024-02-26T06:30:59;96695.31;;;11.19;100.00
21361;BME280;10839;43.206;23.550;2024-02-26T06:33:24;96693.28;;;11.08;100.00
21361;BME280;10839;43.206;23.550;2024-02-26T06:35:50;96698.25;;;10.72;100.00
21361;BME280;10839;43.206;23.550;2024-02-26T06:38:15;96699.69;;;10.94;100.00
21361;BME280;10839;43.206;23.550;2024-02-26T06:40:43;96705.69;;;11.15;100.00
21361;BME280;10839;43.206;23.550;2024-02-26T06:43:09;96714.41;;;10.98;100.00
21361;BME280;10839;43.206;23.550;2024-02-26T06:45:34;96711.91;;;10.90;100.00
21361;BME280;10839;43.206;23.550;2024-02-26T06:48:03;96715.00;;;10.54;100.00
21361;BME280;10839;43.206;23.550;2024-02-26T06:50:28;96716.88;;;10.54;100.00
21361;BME280;10839;43.206;23.550;2024-02-26T06:52:54;96715.22;;;11.05;100.00
21361;BME280;10839;43.206;23.550;2024-02-26T06:55:19;96713.16;;;10.94;100.00
21361;BME280;10839;43.206;23.550;2024-02-26T06:57:45;96717.72;;;10.87;100.00
21361;BME280;10839;43.206;23.550;2024-02-26T07:00:11;96722.25;;;10.80;100.00
21361;BME280;10839;43.206;23.550;2024-02-26T07:02:42;96722.25;;;10.80;100.00
21361;BME280;10839;43.206;23.550;2024-02-26T07:05:08;96727.22;;;10.70;100.00
21361;BME280;10839;43.206;23.550;2024-02-26T07:07:34;96713.97;;;10.49;100.00
21361;BME280;10839;43.206;23.550;2024-02-26T07:10:00;96730.13;;;10.75;100.00
21361;BME280;10839;43.206;23.550;2024-02-26T07:12:29;96721.03;;;11.02;100.00
21361;BME280;10839;43.206;23.550;2024-02-26T07:14:55;96720.19;;;11.21;100.00
21361;BME280;10839;43.206;23.550;2024-02-26T07:17:20;96716.41;;;11.35;100.00
21361;BME280;10839;43.206;23.550;2024-02-26T07:19:46;96728.41;;;11.52;100.00
21361;BME280;10839;43.206;23.550;2024-02-26T07:22:11;96735.47;;;11.66;100.00
21361;BME280;10839;43.206;23.550;2024-02-26T07:24:37;96722.72;;;11.86;100.00
21361;BME280;10839;43.206;23.550;2024-02-26T07:27:02;96730.16;;;11.97;100.00
21361;BME280;10839;43.206;23.550;2024-02-26T07:29:28;96739.88;;;11.98;100.00
21361;BME280;10839;43.206;23.550;2024-02-26T07:31:53;96729.63;;;11.69;100.00
21361;BME280;10839;43.206;23.550;2024-02-26T07:34:19;96725.50;;;11.67;100.00
21361;BME280;10839;43.206;23.550;2024-02-26T07:36:44;96727.09;;;11.87;100.00
21361;BME280;10839;43.206;23.550;2024-02-26T07:39:10;96736.56;;;11.96;100.00
21361;BME280;10839;43.206;23.550;2024-02-26T07:41:36;96731.25;;;12.27;98.65
21361;BME280;10839;43.206;23.550;2024-02-26T07:44:03;96736.81;;;12.39;97.01
21361;BME280;10839;43.206;23.550;2024-02-26T07:46:29;96741.19;;;12.64;96.07
21361;BME280;10839;43.206;23.550;2024-02-26T07:48:54;96731.78;;;13.05;92.53
21361;BME280;10839;43.206;23.550;2024-02-26T07:51:22;96730.50;;;12.82;93.69
21361;BME280;10839;43.206;23.550;2024-02-26T07:53:47;96741.97;;;12.71;94.89
21361;BME280;10839;43.206;23.550;2024-02-26T07:56:13;96741.59;;;12.93;93.66
21361;BME280;10839;43.206;23.550;2024-02-26T07:58:38;96726.84;;;13.02;92.76
21361;BME280;10839;43.206;23.550;2024-02-26T08:01:04;96735.53;;;13.04;92.77
21361;BME280;10839;43.206;23.550;2024-02-26T08:03:30;96738.59;;;12.82;93.51
21361;BME280;10839;43.206;23.550;2024-02-26T08:05:55;96743.59;;;12.79;93.34
21361;BME280;10839;43.206;23.550;2024-02-26T08:08:21;96744.34;;;12.61;94.22
21361;BME280;10839;43.206;23.550;2024-02-26T08:10:47;96739.00;;;12.79;93.69
21361;BME280;10839;43.206;23.550;2024-02-26T08:13:12;96745.91;;;12.75;93.17
21361;BME280;10839;43.206;23.550;2024-02-26T08:15:39;96747.50;;;12.52;94.99
21361;BME280;10839;43.206;23.550;2024-02-26T08:18:05;96748.75;;;12.56;95.62
21361;BME280;10839;43.206;23.550;2024-02-26T08:20:32;96742.06;;;12.58;95.57
21361;BME280;10839;43.206;23.550;2024-02-26T08:22:57;96720.78;;;13.00;92.50
21361;BME280;10839;43.206;23.550;2024-02-26T08:25:24;96719.28;;;13.10;92.53
21361;BME280;10839;43.206;23.550;2024-02-26T08:27:50;96741.00;;;13.22;91.11
21361;BME280;10839;43.206;23.550;2024-02-26T08:30:16;96736.81;;;12.95;92.98
21361;BME280;10839;43.206;23.550;2024-02-26T08:32:44;96733.47;;;13.06;93.04
21361;BME280;10839;43.206;23.550;2024-02-26T08:35:10;96736.97;;;13.31;91.21
21361;BME280;10839;43.206;23.550;2024-02-26T08:37:35;96737.97;;;13.54;89.73
21361;BME280;10839;43.206;23.550;2024-02-26T08:40:01;96739.41;;;13.57;89.13
21361;BME280;10839;43.206;23.550;2024-02-26T08:42:26;96743.66;;;13.46;90.39
21361;BME280;10839;43.206;23.550;2024-02-26T08:44:52;96753.34;;;13.11;92.59
21361;BME280;10839;43.206;23.550;2024-02-26T08:47:20;96752.25;;;13.79;88.55
21361;BME280;10839;43.206;23.550;2024-02-26T08:49:45;96752.91;;;13.39;91.23
21361;BME280;10839;43.206;23.550;2024-02-26T08:52:11;96748.13;;;13.59;89.96
21361;BME280;10839;43.206;23.550;2024-02-26T08:54:36;96762.03;;;13.62;90.01
21361;BME280;10839;43.206;23.550;2024-02-26T08:57:02;96756.25;;;13.95;88.08
21361;BME280;10839;43.206;23.550;2024-02-26T08:59:28;96754.84;;;14.10;86.87
21361;BME280;10839;43.206;23.550;2024-02-26T09:01:54;96754.38;;;14.32;85.33
21361;BME280;10839;43.206;23.550;2024-02-26T09:04:20;96757.31;;;14.30;85.55
21361;BME280;10839;43.206;23.550;2024-02-26T09:06:46;96748.75;;;14.33;84.84
21361;BME280;10839;43.206;23.550;2024-02-26T09:09:12;96746.84;;;14.52;84.16
21361;BME280;10839;43.206;23.550;2024-02-26T09:11:37;96760.97;;;14.54;84.04
21361;BME280;10839;43.206;23.550;2024-02-26T09:14:03;96743.31;;;14.92;82.08
21361;BME280;10839;43.206;23.550;2024-02-26T09:16:29;96751.44;;;14.92;82.04
21361;BME280;10839;43.206;23.550;2024-02-26T09:18:56;96745.09;;;14.98;81.46
21361;BME280;10839;43.206;23.550;2024-02-26T09:21:22;96739.88;;;14.85;81.89
21361;BME280;10839;43.206;23.550;2024-02-26T09:23:52;96741.75;;;14.85;81.55
21361;BME280;10839;43.206;23.550;2024-02-26T09:26:18;96739.91;;;14.97;80.73
21361;BME280;10839;43.206;23.550;2024-02-26T09:28:45;96718.91;;;14.92;80.81
21361;BME280;10839;43.206;23.550;2024-02-26T09:31:10;96729.47;;;15.23;79.44
21361;BME280;10839;43.206;23.550;2024-02-26T09:33:36;96729.38;;;15.65;77.40
21361;BME280;10839;43.206;23.550;2024-02-26T09:36:04;96717.34;;;15.72;76.16
21361;BME280;10839;43.206;23.550;2024-02-26T09:38:31;96727.91;;;16.08;74.52
21361;BME280;10839;43.206;23.550;2024-02-26T09:41:02;96733.47;;;16.53;72.88
21361;BME280;10839;43.206;23.550;2024-02-26T09:43:34;96731.31;;;16.83;70.77
21361;BME280;10839;43.206;23.550;2024-02-26T09:45:59;96720.16;;;16.96;70.34
21361;BME280;10839;43.206;23.550;2024-02-26T09:48:25;96726.03;;;17.54;67.77
21361;BME280;10839;43.206;23.550;2024-02-26T09:50:52;96729.19;;;18.44;64.21
21361;BME280;10839;43.206;23.550;2024-02-26T09:53:18;96737.47;;;19.02;61.85
21361;BME280;10839;43.206;23.550;2024-02-26T09:55:43;96727.41;;;19.03;60.64
21361;BME280;10839;43.206;23.550;2024-02-26T09:58:10;96728.75;;;18.52;60.91
21361;BME280;10839;43.206;23.550;2024-02-26T10:00:39;96722.94;;;17.84;63.10
21361;BME280;10839;43.206;23.550;2024-02-26T10:03:09;96712.34;;;18.74;61.40
21361;BME280;10839;43.206;23.550;2024-02-26T10:05:38;96721.31;;;18.96;59.59
21361;BME280;10839;43.206;23.550;2024-02-26T10:08:06;96721.28;;;19.23;59.31
21361;BME280;10839;43.206;23.550;2024-02-26T10:10:33;96720.59;;;19.69;57.09
21361;BME280;10839;43.206;23.550;2024-02-26T10:13:00;96722.16;;;20.06;55.74
21361;BME280;10839;43.206;23.550;2024-02-26T10:15:26;96704.28;;;19.42;57.18
21361;BME280;10839;43.206;23.550;2024-02-26T10:17:52;96711.91;;;19.40;55.83
21361;BME280;10839;43.206;23.550;2024-02-26T10:20:18;96715.25;;;19.89;55.36
21361;BME280;10839;43.206;23.550;2024-02-26T10:22:47;96700.34;;;20.11;54.34
21361;BME280;10839;43.206;23.550;2024-02-26T10:25:13;96704.59;;;19.46;55.73
21361;BME280;10839;43.206;23.550;2024-02-26T10:27:41;96702.88;;;19.76;55.82
21361;BME280;10839;43.206;23.550;2024-02-26T10:30:17;96704.53;;;19.77;55.11
21361;BME280;10839;43.206;23.550;2024-02-26T10:32:45;96692.88;;;19.19;56.97
21361;BME280;10839;43.206;23.550;2024-02-26T10:35:11;96681.75;;;19.25;56.21
21361;BME280;10839;43.206;23.550;2024-02-26T10:37:37;96684.72;;;18.92;56.52
21361;BME280;10839;43.206;23.550;2024-02-26T10:40:04;96684.31;;;18.52;58.72
21361;BME280;10839;43.206;23.550;2024-02-26T10:42:30;96682.31;;;18.42;59.77
21361;BME280;10839;43.206;23.550;2024-02-26T10:44:57;96684.06;;;18.80;58.12
21361;BME280;10839;43.206;23.550;2024-02-26T10:47:24;96683.75;;;19.03;57.48
21361;BME280;10839;43.206;23.550;2024-02-26T10:49:50;96670.75;;;19.15;57.20
21361;BME280;10839;43.206;23.550;2024-02-26T10:52:19;96670.81;;;19.25;56.94
21361;BME280;10839;43.206;23.550;2024-02-26T10:54:47;96678.06;;;18.78;59.59
21361;BME280;10839;43.206;23.550;2024-02-26T10:57:15;96669.72;;;19.21;58.81
21361;BME280;10839;43.206;23.550;2024-02-26T10:59:42;96674.91;;;19.54;57.23
21361;BME280;10839;43.206;23.550;2024-02-26T11:02:10;96671.50;;;19.37;57.21
21361;BME280;10839;43.206;23.550;2024-02-26T11:04:37;96673.44;;;19.83;55.86
21361;BME280;10839;43.206;23.550;2024-02-26T11:07:04;96676.59;;;19.65;55.93
21361;BME280;10839;43.206;23.550;2024-02-26T11:09:31;96678.13;;;19.46;55.77
21361;BME280;10839;43.206;23.550;2024-02-26T11:11:58;96673.00;;;19.23;56.92
21361;BME280;10839;43.206;23.550;2024-02-26T11:14:25;96676.19;;;19.15;57.01
21361;BME280;10839;43.206;23.550;2024-02-26T11:16:51;96657.84;;;19.37;56.40
21361;BME280;10839;43.206;23.550;2024-02-26T11:19:18;96663.03;;;19.07;57.39
21361;BME280;10839;43.206;23.550;2024-02-26T11:21:43;96665.84;;;18.85;57.86
21361;BME280;10839;43.206;23.550;2024-02-26T11:24:14;96662.06;;;19.23;56.80
21361;BME280;10839;43.206;23.550;2024-02-26T11:26:53;96666.34;;;19.09;57.64
21361;BME280;10839;43.206;23.550;2024-02-26T11:29:33;96661.31;;;18.96;58.02
21361;BME280;10839;43.206;23.550;2024-02-26T11:32:00;96667.16;;;19.09;57.29
21361;BME280;10839;43.206;23.550;2024-02-26T11:34:26;96675.88;;;19.38;56.72
21361;BME280;10839;43.206;23.550;2024-02-26T11:36:53;96663.13;;;19.17;57.40
21361;BME280;10839;43.206;23.550;2024-02-26T11:39:19;96670.13;;;19.03;58.08
21361;BME280;10839;43.206;23.550;2024-02-26T11:41:46;96663.16;;;19.22;57.47
21361;BME280;10839;43.206;23.550;2024-02-26T11:44:11;96661.38;;;19.01;58.20
21361;BME280;10839;43.206;23.550;2024-02-26T11:46:42;96664.75;;;19.18;58.54
21361;BME280;10839;43.206;23.550;2024-02-26T11:49:40;96667.00;;;18.63;60.20
21361;BME280;10839;43.206;23.550;2024-02-26T11:52:09;96662.88;;;18.87;59.75
21361;BME280;10839;43.206;23.550;2024-02-26T11:57:04;96663.91;;;18.81;60.68
21361;BME280;10839;43.206;23.550;2024-02-26T11:59:39;96665.63;;;18.39;62.23
21361;BME280;10839;43.206;23.550;2024-02-26T12:02:07;96657.75;;;18.64;62.07
21361;BME280;10839;43.206;23.550;2024-02-26T12:04:33;96658.53;;;18.38;63.11
21361;BME280;10839;43.206;23.550;2024-02-26T12:07:03;96664.22;;;18.58;62.88
21361;BME280;10839;43.206;23.550;2024-02-26T12:09:46;96663.09;;;18.80;61.73
21361;BME280;10839;43.206;23.550;2024-02-26T12:12:17;96668.22;;;18.77;62.03
21361;BME280;10839;43.206;23.550;2024-02-26T12:14:56;96652.44;;;18.31;63.48
21361;BME280;10839;43.206;23.550;2024-02-26T12:17:23;96660.09;;;18.34;64.13
21361;BME280;10839;43.206;23.550;2024-02-26T12:19:49;96655.38;;;18.46;63.65
21361;BME280;10839;43.206;23.550;2024-02-26T12:22:16;96667.31;;;18.40;64.14
21361;BME280;10839;43.206;23.550;2024-02-26T12:24:44;96663.97;;;18.38;64.67
21361;BME280;10839;43.206;23.550;2024-02-26T12:27:10;96653.44;;;18.20;64.97
21361;BME280;10839;43.206;23.550;2024-02-26T12:29:35;96667.78;;;18.15;65.17
21361;BME280;10839;43.206;23.550;2024-02-26T12:32:03;96665.13;;;17.99;66.16
21361;BME280;10839;43.206;23.550;2024-02-26T12:34:29;96662.78;;;18.07;66.45
21361;BME280;10839;43.206;23.550;2024-02-26T12:36:56;96657.34;;;18.07;66.12
21361;BME280;10839;43.206;23.550;2024-02-26T12:39:23;96658.63;;;18.21;65.57
21361;BME280;10839;43.206;23.550;2024-02-26T12:41:49;96661.59;;;18.20;65.58
21361;BME280;10839;43.206;23.550;2024-02-26T12:44:18;96656.50;;;18.07;66.69
21361;BME280;10839;43.206;23.550;2024-02-26T12:46:44;96655.00;;;17.72;67.58